sensor_id;sensor_type;location;lat;lon;timestamp;P1;durP1;ratioP1;P2;durP2;ratioP2
62574;SDS011;53112;45.602;11.904;2022-12-20T00:00:26;89.78;;;46.55;;
62574;SDS011;53112;45.602;11.904;2022-12-20T00:02:52;93.13;;;51.05;;
62574;SDS011;53112;45.602;11.904;2022-12-20T00:05:18;92.38;;;46.35;;
62574;SDS011;53112;45.602;11.904;2022-12-20T00:07:44;84.90;;;43.17;;
62574;SDS011;53112;45.602;11.904;2022-12-20T00:10:10;85.13;;;45.05;;
62574;SDS011;53112;45.602;11.904;2022-12-20T00:12:37;85.32;;;45.70;;
62574;SDS011;53112;45.602;11.904;2022-12-20T00:15:03;79.68;;;41.58;;
62574;SDS011;53112;45.602;11.904;2022-12-20T00:17:30;78.47;;;40.45;;
62574;SDS011;53112;45.602;11.904;2022-12-20T00:19:55;80.97;;;43.17;;
62574;SDS011;53112;45.602;11.904;2022-12-20T00:22:21;80.95;;;42.88;;
62574;SDS011;53112;45.602;11.904;2022-12-20T00:24:47;88.60;;;47.70;;
62574;SDS011;53112;45.602;11.904;2022-12-20T00:27:13;97.25;;;50.33;;
62574;SDS011;53112;45.602;11.904;2022-12-20T00:29:39;92.63;;;49.50;;
62574;SDS011;53112;45.602;11.904;2022-12-20T00:32:05;94.43;;;49.17;;
62574;SDS011;53112;45.602;11.904;2022-12-20T00:34:31;86.90;;;46.60;;
62574;SDS011;53112;45.602;11.904;2022-12-20T00:36:57;95.32;;;49.42;;
62574;SDS011;53112;45.602;11.904;2022-12-20T00:39:23;84.22;;;46.50;;
62574;SDS011;53112;45.602;11.904;2022-12-20T00:41:49;87.78;;;47.90;;
62574;SDS011;53112;45.602;11.904;2022-12-20T00:44:15;81.30;;;44.50;;
62574;SDS011;53112;45.602;11.904;2022-12-20T00:46:41;89.35;;;47.88;;
62574;SDS011;53112;45.602;11.904;2022-12-20T00:49:07;91.50;;;47.83;;
62574;SDS011;53112;45.602;11.904;2022-12-20T00:51:33;102.88;;;53.70;;
62574;SDS011;53112;45.602;11.904;2022-12-20T00:53:58;80.10;;;45.40;;
62574;SDS011;53112;45.602;11.904;2022-12-20T00:56:24;81.90;;;45.47;;
62574;SDS011;53112;45.602;11.904;2022-12-20T00:58:50;90.35;;;49.03;;
62574;SDS011;53112;45.602;11.904;2022-12-20T01:01:22;87.90;;;45.80;;
62574;SDS011;53112;45.602;11.904;2022-12-20T01:03:52;87.55;;;46.30;;
62574;SDS011;53112;45.602;11.904;2022-12-20T01:06:19;81.32;;;42.88;;
62574;SDS011;53112;45.602;11.904;2022-12-20T01:08:45;77.85;;;42.70;;
62574;SDS011;53112;45.602;11.904;2022-12-20T01:11:12;86.60;;;47.05;;
62574;SDS011;53112;45.602;11.904;2022-12-20T01:13:41;90.55;;;47.80;;
62574;SDS011;53112;45.602;11.904;2022-12-20T01:16:20;94.28;;;47.22;;
62574;SDS011;53112;45.602;11.904;2022-12-20T01:18:55;86.63;;;45.60;;
62574;SDS011;53112;45.602;11.904;2022-12-20T01:21:22;92.03;;;48.53;;
62574;SDS011;53112;45.602;11.904;2022-12-20T01:23:50;81.45;;;42.72;;
62574;SDS011;53112;45.602;11.904;2022-12-20T01:26:17;76.57;;;43.65;;
62574;SDS011;53112;45.602;11.904;2022-12-20T01:28:46;76.75;;;42.38;;
62574;SDS011;53112;45.602;11.904;2022-12-20T01:31:16;78.75;;;40.67;;
62574;SDS011;53112;45.602;11.904;2022-12-20T01:33:43;74.35;;;40.10;;
62574;SDS011;53112;45.602;11.904;2022-12-20T01:36:11;75.15;;;41.80;;
62574;SDS011;53112;45.602;11.904;2022-12-20T01:38:55;81.18;;;43.83;;
62574;SDS011;53112;45.602;11.904;2022-12-20T01:41:26;79.63;;;43.63;;
62574;SDS011;53112;45.602;11.904;2022-12-20T01:43:56;82.57;;;43.90;;
62574;SDS011;53112;45.602;11.904;2022-12-20T01:46:25;81.25;;;44.65;;
62574;SDS011;53112;45.602;11.904;2022-12-20T01:48:58;89.72;;;48.08;;
62574;SDS011;53112;45.602;11.904;2022-12-20T01:51:25;89.47;;;49.55;;
62574;SDS011;53112;45.602;11.904;2022-12-20T01:53:58;89.95;;;49.70;;
62574;SDS011;53112;45.602;11.904;2022-12-20T01:56:32;84.28;;;46.72;;
62574;SDS011;53112;45.602;11.904;2022-12-20T01:58:59;85.90;;;48.60;;
62574;SDS011;53112;45.602;11.904;2022-12-20T02:01:26;103.05;;;51.83;;
62574;SDS011;53112;45.602;11.904;2022-12-20T02:03:54;94.45;;;47.10;;
62574;SDS011;53112;45.602;11.904;2022-12-20T02:06:22;88.85;;;47.75;;
62574;SDS011;53112;45.602;11.904;2022-12-20T02:08:50;81.10;;;45.33;;
62574;SDS011;53112;45.602;11.904;2022-12-20T02:11:43;70.07;;;38.28;;
62574;SDS011;53112;45.602;11.904;2022-12-20T02:20:18;80.72;;;44.83;;
62574;SDS011;53112;45.602;11.904;2022-12-20T02:31:16;83.00;;;47.00;;
62574;SDS011;53112;45.602;11.904;2022-12-20T02:33:47;106.65;;;52.17;;
62574;SDS011;53112;45.602;11.904;2022-12-20T02:36:15;86.35;;;47.40;;
62574;SDS011;53112;45.602;11.904;2022-12-20T02:38:42;96.45;;;52.17;;
62574;SDS011;53112;45.602;11.904;2022-12-20T02:41:31;89.93;;;48.83;;
62574;SDS011;53112;45.602;11.904;2022-12-20T02:44:04;94.18;;;50.90;;
62574;SDS011;53112;45.602;11.904;2022-12-20T02:46:52;102.25;;;53.70;;
62574;SDS011;53112;45.602;11.904;2022-12-20T02:49:21;101.22;;;54.08;;
62574;SDS011;53112;45.602;11.904;2022-12-20T02:51:51;101.35;;;55.13;;
62574;SDS011;53112;45.602;11.904;2022-12-20T02:54:19;101.50;;;53.17;;
62574;SDS011;53112;45.602;11.904;2022-12-20T02:56:55;114.03;;;59.65;;
62574;SDS011;53112;45.602;11.904;2022-12-20T02:59:38;98.70;;;55.08;;
62574;SDS011;53112;45.602;11.904;2022-12-20T03:02:17;101.28;;;53.90;;
62574;SDS011;53112;45.602;11.904;2022-12-20T03:04:44;106.88;;;54.97;;
62574;SDS011;53112;45.602;11.904;2022-12-20T03:07:12;94.80;;;51.97;;
62574;SDS011;53112;45.602;11.904;2022-12-20T03:09:40;98.85;;;51.03;;
62574;SDS011;53112;45.602;11.904;2022-12-20T03:12:08;96.55;;;51.55;;
62574;SDS011;53112;45.602;11.904;2022-12-20T03:14:36;87.20;;;47.13;;
62574;SDS011;53112;45.602;11.904;2022-12-20T03:17:03;72.15;;;42.55;;
62574;SDS011;53112;45.602;11.904;2022-12-20T03:19:29;88.97;;;46.40;;
62574;SDS011;53112;45.602;11.904;2022-12-20T03:21:56;85.75;;;45.10;;
62574;SDS011;53112;45.602;11.904;2022-12-20T03:24:22;91.68;;;50.80;;
62574;SDS011;53112;45.602;11.904;2022-12-20T03:26:48;93.97;;;52.25;;
62574;SDS011;53112;45.602;11.904;2022-12-20T03:29:14;94.40;;;50.92;;
62574;SDS011;53112;45.602;11.904;2022-12-20T03:31:40;91.47;;;49.50;;
62574;SDS011;53112;45.602;11.904;2022-12-20T03:34:06;87.32;;;47.70;;
62574;SDS011;53112;45.602;11.904;2022-12-20T03:36:32;79.82;;;43.70;;
62574;SDS011;53112;45.602;11.904;2022-12-20T03:38:58;89.40;;;48.30;;
62574;SDS011;53112;45.602;11.904;2022-12-20T03:41:24;88.63;;;49.45;;
62574;SDS011;53112;45.602;11.904;2022-12-20T03:43:50;92.63;;;48.63;;
62574;SDS011;53112;45.602;11.904;2022-12-20T03:46:16;87.75;;;48.78;;
62574;SDS011;53112;45.602;11.904;2022-12-20T03:48:43;86.13;;;46.38;;
62574;SDS011;53112;45.602;11.904;2022-12-20T03:51:09;84.50;;;47.30;;
62574;SDS011;53112;45.602;11.904;2022-12-20T03:53:35;95.50;;;50.60;;
62574;SDS011;53112;45.602;11.904;2022-12-20T03:56:01;92.88;;;51.70;;
62574;SDS011;53112;45.602;11.904;2022-12-20T03:58:27;100.70;;;55.17;;
62574;SDS011;53112;45.602;11.904;2022-12-20T04:00:53;89.55;;;49.70;;
62574;SDS011;53112;45.602;11.904;2022-12-20T04:03:21;90.40;;;47.30;;
62574;SDS011;53112;45.602;11.904;2022-12-20T04:05:47;86.15;;;46.30;;
62574;SDS011;53112;45.602;11.904;2022-12-20T04:08:13;79.80;;;44.25;;
62574;SDS011;53112;45.602;11.904;2022-12-20T04:10:39;79.97;;;44.10;;
62574;SDS011;53112;45.602;11.904;2022-12-20T04:13:23;76.32;;;43.58;;
62574;SDS011;53112;45.602;11.904;2022-12-20T04:15:49;71.05;;;40.83;;
62574;SDS011;53112;45.602;11.904;2022-12-20T04:18:15;74.97;;;41.92;;
62574;SDS011;53112;45.602;11.904;2022-12-20T04:20:41;70.72;;;40.17;;
62574;SDS011;53112;45.602;11.904;2022-12-20T04:23:07;73.57;;;41.20;;
62574;SDS011;53112;45.602;11.904;2022-12-20T04:25:33;72.15;;;39.35;;
62574;SDS011;53112;45.602;11.904;2022-12-20T04:27:59;65.47;;;38.08;;
62574;SDS011;53112;45.602;11.904;2022-12-20T04:30:25;64.47;;;36.85;;
62574;SDS011;53112;45.602;11.904;2022-12-20T04:32:50;68.82;;;39.88;;
62574;SDS011;53112;45.602;11.904;2022-12-20T04:35:19;70.50;;;38.20;;
62574;SDS011;53112;45.602;11.904;2022-12-20T04:37:45;71.15;;;37.95;;
62574;SDS011;53112;45.602;11.904;2022-12-20T04:40:11;63.20;;;34.63;;
62574;SDS011;53112;45.602;11.904;2022-12-20T04:42:38;58.40;;;34.35;;
62574;SDS011;53112;45.602;11.904;2022-12-20T04:45:04;59.60;;;33.58;;
62574;SDS011;53112;45.602;11.904;2022-12-20T04:47:30;56.08;;;31.30;;
62574;SDS011;53112;45.602;11.904;2022-12-20T04:49:56;52.20;;;29.23;;
62574;SDS011;53112;45.602;11.904;2022-12-20T04:52:22;52.33;;;28.98;;
62574;SDS011;53112;45.602;11.904;2022-12-20T04:55:07;50.10;;;28.08;;
62574;SDS011;53112;45.602;11.904;2022-12-20T04:57:33;53.28;;;29.23;;
62574;SDS011;53112;45.602;11.904;2022-12-20T04:59:59;53.78;;;30.52;;
62574;SDS011;53112;45.602;11.904;2022-12-20T05:02:25;52.00;;;29.80;;
62574;SDS011;53112;45.602;11.904;2022-12-20T05:04:51;59.90;;;35.08;;
62574;SDS011;53112;45.602;11.904;2022-12-20T05:07:16;56.35;;;32.63;;
62574;SDS011;53112;45.602;11.904;2022-12-20T05:09:42;53.72;;;30.00;;
62574;SDS011;53112;45.602;11.904;2022-12-20T05:12:08;55.13;;;31.77;;
62574;SDS011;53112;45.602;11.904;2022-12-20T05:14:34;50.35;;;30.73;;
62574;SDS011;53112;45.602;11.904;2022-12-20T05:17:00;51.65;;;30.45;;
62574;SDS011;53112;45.602;11.904;2022-12-20T05:19:26;54.20;;;30.58;;
62574;SDS011;53112;45.602;11.904;2022-12-20T05:21:52;54.88;;;31.45;;
62574;SDS011;53112;45.602;11.904;2022-12-20T05:24:36;53.78;;;29.95;;
62574;SDS011;53112;45.602;11.904;2022-12-20T05:27:21;57.13;;;32.55;;
62574;SDS011;53112;45.602;11.904;2022-12-20T05:29:47;55.05;;;32.10;;
62574;SDS011;53112;45.602;11.904;2022-12-20T05:32:13;51.72;;;29.73;;
62574;SDS011;53112;45.602;11.904;2022-12-20T05:34:39;48.05;;;27.80;;
62574;SDS011;53112;45.602;11.904;2022-12-20T05:37:05;47.33;;;26.92;;
62574;SDS011;53112;45.602;11.904;2022-12-20T05:39:31;46.55;;;28.13;;
62574;SDS011;53112;45.602;11.904;2022-12-20T05:41:58;51.95;;;30.52;;
62574;SDS011;53112;45.602;11.904;2022-12-20T05:44:24;49.42;;;28.92;;
62574;SDS011;53112;45.602;11.904;2022-12-20T05:46:50;58.22;;;30.17;;
62574;SDS011;53112;45.602;11.904;2022-12-20T05:49:16;51.92;;;30.23;;
62574;SDS011;53112;45.602;11.904;2022-12-20T05:51:42;51.88;;;30.83;;
62574;SDS011;53112;45.602;11.904;2022-12-20T05:54:08;54.53;;;31.17;;
62574;SDS011;53112;45.602;11.904;2022-12-20T05:56:34;54.10;;;30.38;;
62574;SDS011;53112;45.602;11.904;2022-12-20T05:59:00;51.42;;;30.45;;
62574;SDS011;53112;45.602;11.904;2022-12-20T06:01:26;52.95;;;30.80;;
62574;SDS011;53112;45.602;11.904;2022-12-20T06:03:52;54.13;;;30.58;;
62574;SDS011;53112;45.602;11.904;2022-12-20T06:06:18;52.38;;;29.58;;
62574;SDS011;53112;45.602;11.904;2022-12-20T06:08:44;49.00;;;28.55;;
62574;SDS011;53112;45.602;11.904;2022-12-20T06:11:10;47.85;;;26.73;;
62574;SDS011;53112;45.602;11.904;2022-12-20T06:13:36;43.40;;;25.45;;
62574;SDS011;53112;45.602;11.904;2022-12-20T06:16:01;41.63;;;24.70;;
62574;SDS011;53112;45.602;11.904;2022-12-20T06:18:28;38.80;;;22.45;;
62574;SDS011;53112;45.602;11.904;2022-12-20T06:20:53;44.78;;;24.33;;
62574;SDS011;53112;45.602;11.904;2022-12-20T06:23:20;37.45;;;23.35;;
62574;SDS011;53112;45.602;11.904;2022-12-20T06:25:46;38.03;;;21.77;;
62574;SDS011;53112;45.602;11.904;2022-12-20T06:28:12;36.22;;;21.83;;
62574;SDS011;53112;45.602;11.904;2022-12-20T06:30:40;38.15;;;21.52;;
62574;SDS011;53112;45.602;11.904;2022-12-20T06:33:06;38.40;;;22.15;;
62574;SDS011;53112;45.602;11.904;2022-12-20T06:35:32;42.78;;;24.77;;
62574;SDS011;53112;45.602;11.904;2022-12-20T06:37:58;40.83;;;24.35;;
62574;SDS011;53112;45.602;11.904;2022-12-20T06:40:24;43.20;;;23.73;;
62574;SDS011;53112;45.602;11.904;2022-12-20T06:42:50;36.25;;;22.33;;
62574;SDS011;53112;45.602;11.904;2022-12-20T06:45:16;36.95;;;22.15;;
62574;SDS011;53112;45.602;11.904;2022-12-20T06:47:42;35.55;;;21.25;;
62574;SDS011;53112;45.602;11.904;2022-12-20T06:50:08;35.80;;;20.65;;
62574;SDS011;53112;45.602;11.904;2022-12-20T06:52:34;39.13;;;21.73;;
62574;SDS011;53112;45.602;11.904;2022-12-20T06:55:00;34.08;;;20.52;;
62574;SDS011;53112;45.602;11.904;2022-12-20T06:57:26;35.92;;;20.92;;
62574;SDS011;53112;45.602;11.904;2022-12-20T06:59:52;34.70;;;21.00;;
62574;SDS011;53112;45.602;11.904;2022-12-20T07:02:17;43.38;;;25.10;;
62574;SDS011;53112;45.602;11.904;2022-12-20T07:04:43;46.35;;;26.33;;
62574;SDS011;53112;45.602;11.904;2022-12-20T07:07:10;56.17;;;30.20;;
62574;SDS011;53112;45.602;11.904;2022-12-20T07:09:37;44.03;;;25.98;;
62574;SDS011;53112;45.602;11.904;2022-12-20T07:12:06;38.92;;;23.33;;
62574;SDS011;53112;45.602;11.904;2022-12-20T07:14:32;36.80;;;21.52;;
62574;SDS011;53112;45.602;11.904;2022-12-20T07:16:59;34.95;;;19.65;;
62574;SDS011;53112;45.602;11.904;2022-12-20T07:19:25;36.55;;;19.45;;
62574;SDS011;53112;45.602;11.904;2022-12-20T07:21:51;32.58;;;18.08;;
62574;SDS011;53112;45.602;11.904;2022-12-20T07:24:16;31.23;;;17.50;;
62574;SDS011;53112;45.602;11.904;2022-12-20T07:26:43;36.08;;;20.83;;
62574;SDS011;53112;45.602;11.904;2022-12-20T07:29:11;33.47;;;19.98;;
62574;SDS011;53112;45.602;11.904;2022-12-20T07:31:38;33.40;;;18.35;;
62574;SDS011;53112;45.602;11.904;2022-12-20T07:34:04;36.38;;;19.45;;
62574;SDS011;53112;45.602;11.904;2022-12-20T07:36:30;37.30;;;21.00;;
62574;SDS011;53112;45.602;11.904;2022-12-20T07:38:56;38.88;;;20.95;;
62574;SDS011;53112;45.602;11.904;2022-12-20T07:41:22;39.08;;;19.67;;
62574;SDS011;53112;45.602;11.904;2022-12-20T07:43:50;34.45;;;20.33;;
62574;SDS011;53112;45.602;11.904;2022-12-20T07:46:16;33.70;;;18.83;;
62574;SDS011;53112;45.602;11.904;2022-12-20T07:48:42;32.95;;;18.42;;
62574;SDS011;53112;45.602;11.904;2022-12-20T07:51:18;30.98;;;19.00;;
62574;SDS011;53112;45.602;11.904;2022-12-20T07:53:51;32.30;;;17.77;;
62574;SDS011;53112;45.602;11.904;2022-12-20T07:56:27;42.00;;;23.02;;
62574;SDS011;53112;45.602;11.904;2022-12-20T07:58:55;42.45;;;21.95;;
62574;SDS011;53112;45.602;11.904;2022-12-20T08:01:25;51.75;;;27.65;;
62574;SDS011;53112;45.602;11.904;2022-12-20T08:03:57;34.80;;;20.13;;
62574;SDS011;53112;45.602;11.904;2022-12-20T08:06:30;32.20;;;18.65;;
62574;SDS011;53112;45.602;11.904;2022-12-20T08:08:57;34.50;;;18.40;;
62574;SDS011;53112;45.602;11.904;2022-12-20T08:11:26;31.40;;;18.27;;
62574;SDS011;53112;45.602;11.904;2022-12-20T08:13:56;30.38;;;17.35;;
62574;SDS011;53112;45.602;11.904;2022-12-20T08:16:22;34.13;;;19.05;;
62574;SDS011;53112;45.602;11.904;2022-12-20T08:18:48;32.00;;;18.23;;
62574;SDS011;53112;45.602;11.904;2022-12-20T08:21:14;34.60;;;18.92;;
62574;SDS011;53112;45.602;11.904;2022-12-20T08:23:40;34.78;;;19.58;;
62574;SDS011;53112;45.602;11.904;2022-12-20T08:26:06;35.28;;;18.48;;
62574;SDS011;53112;45.602;11.904;2022-12-20T08:28:32;32.13;;;18.52;;
62574;SDS011;53112;45.602;11.904;2022-12-20T08:31:02;39.20;;;21.10;;
62574;SDS011;53112;45.602;11.904;2022-12-20T08:33:29;34.05;;;18.60;;
62574;SDS011;53112;45.602;11.904;2022-12-20T08:35:58;33.05;;;19.13;;
62574;SDS011;53112;45.602;11.904;2022-12-20T08:38:27;33.17;;;18.98;;
62574;SDS011;53112;45.602;11.904;2022-12-20T08:40:54;29.85;;;17.70;;
62574;SDS011;53112;45.602;11.904;2022-12-20T08:43:20;33.47;;;18.45;;
62574;SDS011;53112;45.602;11.904;2022-12-20T08:45:50;30.85;;;18.15;;
62574;SDS011;53112;45.602;11.904;2022-12-20T08:48:20;31.83;;;18.20;;
62574;SDS011;53112;45.602;11.904;2022-12-20T08:50:47;31.85;;;18.70;;
62574;SDS011;53112;45.602;11.904;2022-12-20T08:53:17;39.67;;;19.23;;
62574;SDS011;53112;45.602;11.904;2022-12-20T08:55:44;40.95;;;22.42;;
62574;SDS011;53112;45.602;11.904;2022-12-20T08:58:09;50.75;;;24.42;;
62574;SDS011;53112;45.602;11.904;2022-12-20T09:00:35;50.60;;;25.77;;
62574;SDS011;53112;45.602;11.904;2022-12-20T09:03:02;48.03;;;25.08;;
62574;SDS011;53112;45.602;11.904;2022-12-20T09:05:28;47.15;;;25.40;;
62574;SDS011;53112;45.602;11.904;2022-12-20T09:07:53;43.78;;;25.05;;
62574;SDS011;53112;45.602;11.904;2022-12-20T09:10:19;37.88;;;22.65;;
62574;SDS011;53112;45.602;11.904;2022-12-20T09:12:45;38.20;;;21.73;;
62574;SDS011;53112;45.602;11.904;2022-12-20T09:15:11;38.70;;;21.63;;
62574;SDS011;53112;45.602;11.904;2022-12-20T09:17:37;37.50;;;21.70;;
62574;SDS011;53112;45.602;11.904;2022-12-20T09:20:03;34.65;;;21.05;;
62574;SDS011;53112;45.602;11.904;2022-12-20T09:22:30;37.85;;;21.25;;
62574;SDS011;53112;45.602;11.904;2022-12-20T09:24:56;34.35;;;20.30;;
62574;SDS011;53112;45.602;11.904;2022-12-20T09:27:22;34.20;;;20.80;;
62574;SDS011;53112;45.602;11.904;2022-12-20T09:29:48;38.92;;;22.75;;
62574;SDS011;53112;45.602;11.904;2022-12-20T09:32:14;37.78;;;22.80;;
62574;SDS011;53112;45.602;11.904;2022-12-20T09:34:40;42.97;;;25.00;;
62574;SDS011;53112;45.602;11.904;2022-12-20T09:37:06;33.67;;;21.30;;
62574;SDS011;53112;45.602;11.904;2022-12-20T09:39:32;38.13;;;20.63;;
62574;SDS011;53112;45.602;11.904;2022-12-20T09:41:58;33.67;;;20.95;;
62574;SDS011;53112;45.602;11.904;2022-12-20T09:44:28;36.17;;;20.50;;
62574;SDS011;53112;45.602;11.904;2022-12-20T09:49:27;34.00;;;20.23;;
62574;SDS011;53112;45.602;11.904;2022-12-20T09:52:06;34.33;;;18.52;;
62574;SDS011;53112;45.602;11.904;2022-12-20T10:00:14;35.60;;;19.85;;
62574;SDS011;53112;45.602;11.904;2022-12-20T10:02:41;29.27;;;19.25;;
62574;SDS011;53112;45.602;11.904;2022-12-20T10:05:19;34.47;;;19.58;;
62574;SDS011;53112;45.602;11.904;2022-12-20T10:16:06;35.42;;;20.70;;
62574;SDS011;53112;45.602;11.904;2022-12-20T10:18:47;31.70;;;19.30;;
62574;SDS011;53112;45.602;11.904;2022-12-20T10:24:03;35.80;;;21.00;;
62574;SDS011;53112;45.602;11.904;2022-12-20T10:26:36;32.83;;;19.63;;
62574;SDS011;53112;45.602;11.904;2022-12-20T10:29:01;33.33;;;19.85;;
62574;SDS011;53112;45.602;11.904;2022-12-20T10:31:27;33.33;;;19.67;;
62574;SDS011;53112;45.602;11.904;2022-12-20T10:33:53;32.33;;;19.02;;
62574;SDS011;53112;45.602;11.904;2022-12-20T10:36:30;34.42;;;19.88;;
62574;SDS011;53112;45.602;11.904;2022-12-20T10:39:03;29.63;;;18.45;;
62574;SDS011;53112;45.602;11.904;2022-12-20T10:41:48;33.67;;;19.13;;
62574;SDS011;53112;45.602;11.904;2022-12-20T10:49:23;33.22;;;20.00;;
62574;SDS011;53112;45.602;11.904;2022-12-20T10:51:54;33.22;;;19.63;;
62574;SDS011;53112;45.602;11.904;2022-12-20T10:54:33;36.10;;;19.48;;
62574;SDS011;53112;45.602;11.904;2022-12-20T10:57:02;31.80;;;19.08;;
62574;SDS011;53112;45.602;11.904;2022-12-20T10:59:43;33.83;;;19.52;;
62574;SDS011;53112;45.602;11.904;2022-12-20T11:10:25;35.13;;;22.05;;
62574;SDS011;53112;45.602;11.904;2022-12-20T11:12:56;34.93;;;23.10;;
62574;SDS011;53112;45.602;11.904;2022-12-20T11:15:26;34.05;;;21.27;;
62574;SDS011;53112;45.602;11.904;2022-12-20T11:23:40;32.60;;;21.08;;
62574;SDS011;53112;45.602;11.904;2022-12-20T11:45:56;34.53;;;19.70;;
62574;SDS011;53112;45.602;11.904;2022-12-20T12:01:44;33.17;;;19.95;;
62574;SDS011;53112;45.602;11.904;2022-12-20T12:04:19;31.63;;;19.73;;
62574;SDS011;53112;45.602;11.904;2022-12-20T12:06:52;30.02;;;20.05;;
62574;SDS011;53112;45.602;11.904;2022-12-20T12:12:33;32.25;;;19.85;;
62574;SDS011;53112;45.602;11.904;2022-12-20T12:18:01;31.13;;;19.10;;
62574;SDS011;53112;45.602;11.904;2022-12-20T12:23:27;33.53;;;19.90;;
62574;SDS011;53112;45.602;11.904;2022-12-20T12:26:06;33.28;;;19.42;;
62574;SDS011;53112;45.602;11.904;2022-12-20T12:28:42;33.05;;;22.05;;
62574;SDS011;53112;45.602;11.904;2022-12-20T12:31:12;30.13;;;19.75;;
62574;SDS011;53112;45.602;11.904;2022-12-20T12:33:45;29.48;;;18.30;;
62574;SDS011;53112;45.602;11.904;2022-12-20T12:37:06;28.95;;;18.23;;
62574;SDS011;53112;45.602;11.904;2022-12-20T12:39:19;31.85;;;19.27;;
62574;SDS011;53112;45.602;11.904;2022-12-20T12:44:57;35.80;;;21.60;;
62574;SDS011;53112;45.602;11.904;2022-12-20T12:47:39;30.13;;;19.08;;
62574;SDS011;53112;45.602;11.904;2022-12-20T12:50:32;32.07;;;19.37;;
62574;SDS011;53112;45.602;11.904;2022-12-20T12:53:11;28.23;;;17.90;;
62574;SDS011;53112;45.602;11.904;2022-12-20T13:04:30;34.47;;;21.65;;
62574;SDS011;53112;45.602;11.904;2022-12-20T13:07:24;33.00;;;21.50;;
62574;SDS011;53112;45.602;11.904;2022-12-20T13:15:46;35.45;;;22.20;;
62574;SDS011;53112;45.602;11.904;2022-12-20T13:17:50;32.58;;;21.88;;
62574;SDS011;53112;45.602;11.904;2022-12-20T13:20:41;35.70;;;22.38;;
62574;SDS011;53112;45.602;11.904;2022-12-20T13:23:28;34.28;;;22.42;;
62574;SDS011;53112;45.602;11.904;2022-12-20T13:25:54;33.10;;;21.02;;
62574;SDS011;53112;45.602;11.904;2022-12-20T13:41:33;32.28;;;20.75;;
62574;SDS011;53112;45.602;11.904;2022-12-20T13:44:17;32.88;;;20.95;;
62574;SDS011;53112;45.602;11.904;2022-12-20T13:46:56;34.28;;;22.45;;
62574;SDS011;53112;45.602;11.904;2022-12-20T13:49:26;40.92;;;22.75;;
62574;SDS011;53112;45.602;11.904;2022-12-20T13:54:43;37.97;;;22.20;;
62574;SDS011;53112;45.602;11.904;2022-12-20T13:59:56;36.92;;;20.05;;
62574;SDS011;53112;45.602;11.904;2022-12-20T14:02:27;31.33;;;20.23;;
62574;SDS011;53112;45.602;11.904;2022-12-20T14:05:12;30.98;;;18.85;;
62574;SDS011;53112;45.602;11.904;2022-12-20T14:07:46;27.98;;;18.25;;
62574;SDS011;53112;45.602;11.904;2022-12-20T14:10:18;29.73;;;18.48;;
62574;SDS011;53112;45.602;11.904;2022-12-20T14:12:46;30.75;;;18.88;;
62574;SDS011;53112;45.602;11.904;2022-12-20T14:15:25;32.47;;;18.88;;
62574;SDS011;53112;45.602;11.904;2022-12-20T14:17:54;30.38;;;18.38;;
62574;SDS011;53112;45.602;11.904;2022-12-20T14:20:25;28.73;;;17.60;;
62574;SDS011;53112;45.602;11.904;2022-12-20T14:25:32;29.10;;;18.10;;
62574;SDS011;53112;45.602;11.904;2022-12-20T14:28:03;31.02;;;18.95;;
62574;SDS011;53112;45.602;11.904;2022-12-20T14:30:40;30.77;;;18.88;;
62574;SDS011;53112;45.602;11.904;2022-12-20T14:33:18;30.63;;;19.35;;
62574;SDS011;53112;45.602;11.904;2022-12-20T14:35:56;30.17;;;18.45;;
62574;SDS011;53112;45.602;11.904;2022-12-20T14:38:31;33.55;;;20.17;;
62574;SDS011;53112;45.602;11.904;2022-12-20T14:40:57;30.48;;;19.05;;
62574;SDS011;53112;45.602;11.904;2022-12-20T14:43:25;32.90;;;19.45;;
62574;SDS011;53112;45.602;11.904;2022-12-20T14:48:45;41.50;;;24.70;;
62574;SDS011;53112;45.602;11.904;2022-12-20T14:51:12;42.25;;;25.13;;
62574;SDS011;53112;45.602;11.904;2022-12-20T14:53:45;40.15;;;22.52;;
62574;SDS011;53112;45.602;11.904;2022-12-20T14:56:13;32.80;;;21.08;;
62574;SDS011;53112;45.602;11.904;2022-12-20T14:58:44;41.08;;;22.85;;
62574;SDS011;53112;45.602;11.904;2022-12-20T15:03:52;35.78;;;21.23;;
62574;SDS011;53112;45.602;11.904;2022-12-20T15:06:30;33.20;;;20.77;;
62574;SDS011;53112;45.602;11.904;2022-12-20T15:08:58;35.08;;;19.98;;
62574;SDS011;53112;45.602;11.904;2022-12-20T15:11:24;33.72;;;20.52;;
62574;SDS011;53112;45.602;11.904;2022-12-20T15:13:51;32.85;;;19.92;;
62574;SDS011;53112;45.602;11.904;2022-12-20T15:16:22;38.13;;;21.95;;
62574;SDS011;53112;45.602;11.904;2022-12-20T15:19:00;31.92;;;19.70;;
62574;SDS011;53112;45.602;11.904;2022-12-20T15:24:00;38.95;;;22.33;;
62574;SDS011;53112;45.602;11.904;2022-12-20T15:26:28;35.88;;;21.67;;
62574;SDS011;53112;45.602;11.904;2022-12-20T15:28:55;34.90;;;20.67;;
62574;SDS011;53112;45.602;11.904;2022-12-20T15:31:22;31.52;;;19.70;;
62574;SDS011;53112;45.602;11.904;2022-12-20T15:33:50;35.15;;;20.88;;
62574;SDS011;53112;45.602;11.904;2022-12-20T15:36:21;34.95;;;21.38;;
62574;SDS011;53112;45.602;11.904;2022-12-20T15:38:50;37.78;;;21.75;;
62574;SDS011;53112;45.602;11.904;2022-12-20T15:41:24;40.80;;;22.27;;
62574;SDS011;53112;45.602;11.904;2022-12-20T15:44:04;38.10;;;20.90;;
62574;SDS011;53112;45.602;11.904;2022-12-20T15:46:34;40.40;;;22.20;;
62574;SDS011;53112;45.602;11.904;2022-12-20T15:49:01;44.33;;;22.25;;
62574;SDS011;53112;45.602;11.904;2022-12-20T15:51:33;43.45;;;23.98;;
62574;SDS011;53112;45.602;11.904;2022-12-20T15:54:03;44.63;;;25.63;;
62574;SDS011;53112;45.602;11.904;2022-12-20T15:56:34;48.80;;;25.13;;
62574;SDS011;53112;45.602;11.904;2022-12-20T15:59:00;39.72;;;23.33;;
62574;SDS011;53112;45.602;11.904;2022-12-20T16:01:27;38.70;;;23.20;;
62574;SDS011;53112;45.602;11.904;2022-12-20T16:03:56;42.67;;;24.33;;
62574;SDS011;53112;45.602;11.904;2022-12-20T16:06:22;46.30;;;25.00;;
62574;SDS011;53112;45.602;11.904;2022-12-20T16:08:47;39.92;;;23.13;;
62574;SDS011;53112;45.602;11.904;2022-12-20T16:11:18;38.80;;;23.38;;
62574;SDS011;53112;45.602;11.904;2022-12-20T16:13:46;36.17;;;22.38;;
62574;SDS011;53112;45.602;11.904;2022-12-20T16:16:16;45.15;;;21.75;;
62574;SDS011;53112;45.602;11.904;2022-12-20T16:18:43;45.57;;;25.30;;
62574;SDS011;53112;45.602;11.904;2022-12-20T16:21:16;39.70;;;23.98;;
62574;SDS011;53112;45.602;11.904;2022-12-20T16:26:13;52.72;;;27.67;;
62574;SDS011;53112;45.602;11.904;2022-12-20T16:28:40;48.45;;;27.05;;
62574;SDS011;53112;45.602;11.904;2022-12-20T16:33:51;45.63;;;25.50;;
62574;SDS011;53112;45.602;11.904;2022-12-20T16:36:18;46.90;;;26.38;;
62574;SDS011;53112;45.602;11.904;2022-12-20T16:38:44;50.55;;;27.02;;
62574;SDS011;53112;45.602;11.904;2022-12-20T16:41:11;43.72;;;24.13;;
62574;SDS011;53112;45.602;11.904;2022-12-20T16:43:40;47.40;;;25.55;;
62574;SDS011;53112;45.602;11.904;2022-12-20T16:46:17;42.78;;;24.85;;